sensor_id;sensor_type;location;lat;lon;timestamp;pressure;altitude;pressure_sealevel;temperature;humidity
69239;BME280;56349;51.816;-0.026;2022-07-30T00:02:11;101292.76;;;27.68;27.40
69239;BME280;56349;51.816;-0.026;2022-07-30T00:04:36;101292.62;;;27.63;27.45
69239;BME280;56349;51.816;-0.026;2022-07-30T00:07:02;101295.13;;;27.58;27.51
69239;BME280;56349;51.816;-0.026;2022-07-30T00:09:28;101298.00;;;27.54;27.54
69239;BME280;56349;51.816;-0.026;2022-07-30T00:11:54;101301.13;;;27.51;27.58
69239;BME280;56349;51.816;-0.026;2022-07-30T00:14:19;101299.81;;;27.46;27.61
69239;BME280;56349;51.816;-0.026;2022-07-30T00:16:45;101298.17;;;27.44;27.65
69239;BME280;56349;51.816;-0.026;2022-07-30T00:19:11;101298.91;;;27.39;27.69
69239;BME280;56349;51.816;-0.026;2022-07-30T00:21:37;101299.58;;;27.60;27.73
69239;BME280;56349;51.816;-0.026;2022-07-30T00:24:03;101299.60;;;27.31;27.77
69239;BME280;56349;51.816;-0.026;2022-07-30T00:26:29;101300.91;;;27.28;27.80
69239;BME280;56349;51.816;-0.026;2022-07-30T00:28:54;101297.91;;;27.25;27.83
69239;BME280;56349;51.816;-0.026;2022-07-30T00:31:20;101295.58;;;27.24;27.85
69239;BME280;56349;51.816;-0.026;2022-07-30T00:33:46;101291.09;;;27.47;27.87
69239;BME280;56349;51.816;-0.026;2022-07-30T00:36:12;101288.31;;;27.16;27.92
69239;BME280;56349;51.816;-0.026;2022-07-30T00:38:37;101285.18;;;27.39;27.95
69239;BME280;56349;51.816;-0.026;2022-07-30T00:41:03;101285.36;;;27.38;27.98
69239;BME280;56349;51.816;-0.026;2022-07-30T00:43:29;101283.32;;;27.36;28.00
69239;BME280;56349;51.816;-0.026;2022-07-30T00:45:55;101282.16;;;27.55;28.02
69239;BME280;56349;51.816;-0.026;2022-07-30T00:48:20;101281.74;;;27.03;28.05
69239;BME280;56349;51.816;-0.026;2022-07-30T00:50:46;101281.67;;;27.00;28.09
69239;BME280;56349;51.816;-0.026;2022-07-30T00:53:12;101279.61;;;27.48;28.11
69239;BME280;56349;51.816;-0.026;2022-07-30T00:55:38;101277.34;;;27.46;28.14
69239;BME280;56349;51.816;-0.026;2022-07-30T00:58:04;101273.98;;;27.42;28.18
69239;BME280;56349;51.816;-0.026;2022-07-30T01:00:29;101274.11;;;27.19;28.19
69239;BME280;56349;51.816;-0.026;2022-07-30T01:02:55;101269.48;;;27.17;28.20
69239;BME280;56349;51.816;-0.026;2022-07-30T01:05:22;101265.03;;;26.88;28.22
69239;BME280;56349;51.816;-0.026;2022-07-30T01:07:47;101260.90;;;27.14;28.24
69239;BME280;56349;51.816;-0.026;2022-07-30T01:10:14;101263.56;;;27.35;28.25
69239;BME280;56349;51.816;-0.026;2022-07-30T01:12:38;101259.38;;;27.12;28.26
69239;BME280;56349;51.816;-0.026;2022-07-30T01:15:07;101255.34;;;27.09;28.27
69239;BME280;56349;51.816;-0.026;2022-07-30T01:17:28;101250.21;;;27.29;28.31
69239;BME280;56349;51.816;-0.026;2022-07-30T01:19:59;101247.02;;;27.05;28.31
69239;BME280;56349;51.816;-0.026;2022-07-30T01:22:30;101247.40;;;27.03;28.33
69239;BME280;56349;51.816;-0.026;2022-07-30T01:24:52;101248.36;;;27.00;28.36
69239;BME280;56349;51.816;-0.026;2022-07-30T01:27:13;101248.46;;;26.98;28.38
69239;BME280;56349;51.816;-0.026;2022-07-30T01:29:38;101253.52;;;27.20;28.37
69239;BME280;56349;51.816;-0.026;2022-07-30T01:32:04;101252.63;;;27.19;28.39
69239;BME280;56349;51.816;-0.026;2022-07-30T01:34:30;101252.49;;;27.20;28.37
69239;BME280;56349;51.816;-0.026;2022-07-30T01:36:55;101252.01;;;27.20;28.36
69239;BME280;56349;51.816;-0.026;2022-07-30T01:39:18;101252.97;;;27.17;28.39
69239;BME280;56349;51.816;-0.026;2022-07-30T01:41:44;101250.46;;;26.67;28.39
69239;BME280;56349;51.816;-0.026;2022-07-30T01:44:11;101248.03;;;27.14;28.42
69239;BME280;56349;51.816;-0.026;2022-07-30T01:46:36;101247.74;;;26.90;28.43
69239;BME280;56349;51.816;-0.026;2022-07-30T01:49:01;101248.64;;;26.87;28.46
69239;BME280;56349;51.816;-0.026;2022-07-30T01:51:27;101246.56;;;27.09;28.46
69239;BME280;56349;51.816;-0.026;2022-07-30T01:53:52;101246.92;;;26.85;28.49
69239;BME280;56349;51.816;-0.026;2022-07-30T01:56:20;101251.55;;;27.06;28.50
69239;BME280;56349;51.816;-0.026;2022-07-30T01:58:45;101252.67;;;27.04;28.51
69239;BME280;56349;51.816;-0.026;2022-07-30T02:01:10;101252.01;;;26.81;28.52
69239;BME280;56349;51.816;-0.026;2022-07-30T02:03:36;101252.22;;;27.03;28.53
69239;BME280;56349;51.816;-0.026;2022-07-30T02:06:06;101248.03;;;26.81;28.52
69239;BME280;56349;51.816;-0.026;2022-07-30T02:08:34;101245.33;;;27.02;28.52
69239;BME280;56349;51.816;-0.026;2022-07-30T02:11:03;101246.40;;;26.80;28.54
69239;BME280;56349;51.816;-0.026;2022-07-30T02:13:20;101245.06;;;26.79;28.55
69239;BME280;56349;51.816;-0.026;2022-07-30T02:15:48;101246.25;;;27.00;28.55
69239;BME280;56349;51.816;-0.026;2022-07-30T02:18:16;101244.58;;;26.99;28.56
69239;BME280;56349;51.816;-0.026;2022-07-30T02:20:35;101242.87;;;26.96;28.58
69239;BME280;56349;51.816;-0.026;2022-07-30T02:23:04;101247.84;;;26.94;28.58
69239;BME280;56349;51.816;-0.026;2022-07-30T02:25:26;101245.96;;;26.93;28.59
69239;BME280;56349;51.816;-0.026;2022-07-30T02:27:55;101240.03;;;26.92;28.61
69239;BME280;56349;51.816;-0.026;2022-07-30T02:30:17;101237.77;;;26.91;28.61
69239;BME280;56349;51.816;-0.026;2022-07-30T02:32:44;101235.84;;;26.68;28.61
69239;BME280;56349;51.816;-0.026;2022-07-30T02:35:13;101230.79;;;26.89;28.62
69239;BME280;56349;51.816;-0.026;2022-07-30T02:37:36;101231.00;;;26.88;28.62
69239;BME280;56349;51.816;-0.026;2022-07-30T02:40:01;101225.69;;;26.67;28.62
69239;BME280;56349;51.816;-0.026;2022-07-30T02:42:27;101227.59;;;26.67;28.62
69239;BME280;56349;51.816;-0.026;2022-07-30T02:44:53;101230.34;;;26.66;28.62
69239;BME280;56349;51.816;-0.026;2022-07-30T02:47:19;101233.64;;;26.87;28.64
69239;BME280;56349;51.816;-0.026;2022-07-30T02:49:44;101234.89;;;26.86;28.65
69239;BME280;56349;51.816;-0.026;2022-07-30T02:52:11;101237.35;;;26.86;28.63
69239;BME280;56349;51.816;-0.026;2022-07-30T02:54:36;101236.36;;;26.85;28.64
69239;BME280;56349;51.816;-0.026;2022-07-30T02:57:00;101231.26;;;26.83;28.65
69239;BME280;56349;51.816;-0.026;2022-07-30T02:59:28;101228.22;;;26.61;28.65
69239;BME280;56349;51.816;-0.026;2022-07-30T03:01:52;101223.76;;;26.83;28.65
69239;BME280;56349;51.816;-0.026;2022-07-30T03:04:20;101217.73;;;26.81;28.66
69239;BME280;56349;51.816;-0.026;2022-07-30T03:06:43;101219.85;;;26.79;28.68
69239;BME280;56349;51.816;-0.026;2022-07-30T03:09:09;101226.30;;;26.77;28.71
69239;BME280;56349;51.816;-0.026;2022-07-30T03:11:34;101226.62;;;26.76;28.71
69239;BME280;56349;51.816;-0.026;2022-07-30T03:13:59;101228.36;;;26.75;28.73
69239;BME280;56349;51.816;-0.026;2022-07-30T03:16:25;101229.50;;;26.75;28.73
69239;BME280;56349;51.816;-0.026;2022-07-30T03:18:52;101231.62;;;26.51;28.75
69239;BME280;56349;51.816;-0.026;2022-07-30T03:21:15;101228.35;;;26.74;28.73
69239;BME280;56349;51.816;-0.026;2022-07-30T03:23:43;101225.99;;;26.74;28.73
69239;BME280;56349;51.816;-0.026;2022-07-30T03:26:08;101223.67;;;26.74;28.73
69239;BME280;56349;51.816;-0.026;2022-07-30T03:28:36;101215.69;;;26.73;28.73
69239;BME280;56349;51.816;-0.026;2022-07-30T03:30:59;101206.63;;;26.94;28.76
69239;BME280;56349;51.816;-0.026;2022-07-30T03:33:25;101206.88;;;26.94;28.80
69239;BME280;56349;51.816;-0.026;2022-07-30T03:35:50;101210.19;;;26.94;28.87
69239;BME280;56349;51.816;-0.026;2022-07-30T03:38:16;101213.59;;;26.74;28.91
69239;BME280;56349;51.816;-0.026;2022-07-30T03:40:41;101208.08;;;26.60;28.92
69239;BME280;56349;51.816;-0.026;2022-07-30T03:43:07;101206.46;;;26.93;28.88
69239;BME280;56349;51.816;-0.026;2022-07-30T03:45:32;101207.83;;;26.58;28.82
69239;BME280;56349;51.816;-0.026;2022-07-30T03:47:58;101209.77;;;27.00;28.73
69239;BME280;56349;51.816;-0.026;2022-07-30T03:50:23;101215.00;;;26.90;28.61
69239;BME280;56349;51.816;-0.026;2022-07-30T03:52:49;101219.99;;;27.08;28.45
69239;BME280;56349;51.816;-0.026;2022-07-30T03:55:14;101220.37;;;27.24;28.26
69239;BME280;56349;51.816;-0.026;2022-07-30T03:57:40;101217.41;;;27.36;28.10
69239;BME280;56349;51.816;-0.026;2022-07-30T04:00:11;101222.66;;;27.24;27.96
69239;BME280;56349;51.816;-0.026;2022-07-30T04:02:31;101225.38;;;27.54;27.83
69239;BME280;56349;51.816;-0.026;2022-07-30T04:04:57;101225.56;;;27.57;27.74
69239;BME280;56349;51.816;-0.026;2022-07-30T04:07:22;101223.79;;;27.57;27.69
69239;BME280;56349;51.816;-0.026;2022-07-30T04:09:48;101224.12;;;27.56;27.65
69239;BME280;56349;51.816;-0.026;2022-07-30T04:12:14;101219.30;;;27.53;27.63
69239;BME280;56349;51.816;-0.026;2022-07-30T04:14:41;101223.27;;;27.47;27.64
69239;BME280;56349;51.816;-0.026;2022-07-30T04:17:11;101226.39;;;27.40;27.67
69239;BME280;56349;51.816;-0.026;2022-07-30T04:19:36;101223.63;;;27.34;27.69
69239;BME280;56349;51.816;-0.026;2022-07-30T04:21:58;101225.06;;;27.55;27.72
69239;BME280;56349;51.816;-0.026;2022-07-30T04:24:24;101225.88;;;27.21;27.76
69239;BME280;56349;51.816;-0.026;2022-07-30T04:26:49;101226.72;;;27.14;27.82
69239;BME280;56349;51.816;-0.026;2022-07-30T04:29:14;101229.19;;;27.07;27.85
69239;BME280;56349;51.816;-0.026;2022-07-30T04:31:39;101229.49;;;27.01;27.90
69239;BME280;56349;51.816;-0.026;2022-07-30T04:34:05;101225.44;;;27.43;27.95
69239;BME280;56349;51.816;-0.026;2022-07-30T04:36:31;101223.05;;;27.14;27.99
69239;BME280;56349;51.816;-0.026;2022-07-30T04:38:56;101228.35;;;27.30;28.05
69239;BME280;56349;51.816;-0.026;2022-07-30T04:41:22;101232.81;;;27.04;28.09
69239;BME280;56349;51.816;-0.026;2022-07-30T04:43:47;101230.80;;;27.21;28.12
69239;BME280;56349;51.816;-0.026;2022-07-30T04:46:13;101225.84;;;27.16;28.17
69239;BME280;56349;51.816;-0.026;2022-07-30T04:48:39;101225.99;;;27.12;28.21
69239;BME280;56349;51.816;-0.026;2022-07-30T04:51:11;101221.68;;;27.07;28.25
69239;BME280;56349;51.816;-0.026;2022-07-30T04:53:31;101215.22;;;26.83;28.27
69239;BME280;56349;51.816;-0.026;2022-07-30T04:55:58;101217.59;;;26.80;28.30
69239;BME280;56349;51.816;-0.026;2022-07-30T04:58:23;101212.00;;;26.78;28.31
69239;BME280;56349;51.816;-0.026;2022-07-30T05:00:49;101199.80;;;26.45;28.36
69239;BME280;56349;51.816;-0.026;2022-07-30T05:03:15;101200.85;;;26.89;28.40
69239;BME280;56349;51.816;-0.026;2022-07-30T05:05:40;101211.90;;;26.86;28.45
69239;BME280;56349;51.816;-0.026;2022-07-30T05:08:06;101217.46;;;26.84;28.47
69239;BME280;56349;51.816;-0.026;2022-07-30T05:10:31;101218.89;;;26.81;28.49
69239;BME280;56349;51.816;-0.026;2022-07-30T05:12:57;101224.43;;;26.76;28.54
69239;BME280;56349;51.816;-0.026;2022-07-30T05:15:23;101231.78;;;26.74;28.56
69239;BME280;56349;51.816;-0.026;2022-07-30T05:17:49;101232.53;;;26.50;28.58
69239;BME280;56349;51.816;-0.026;2022-07-30T05:20:14;101233.22;;;26.49;28.59
69239;BME280;56349;51.816;-0.026;2022-07-30T05:22:40;101228.67;;;26.70;28.60
69239;BME280;56349;51.816;-0.026;2022-07-30T05:25:06;101227.05;;;26.69;28.61
69239;BME280;56349;51.816;-0.026;2022-07-30T05:27:31;101232.98;;;26.72;28.60
69239;BME280;56349;51.816;-0.026;2022-07-30T05:29:57;101237.53;;;26.69;28.63
69239;BME280;56349;51.816;-0.026;2022-07-30T05:32:22;101247.78;;;26.64;28.67
69239;BME280;56349;51.816;-0.026;2022-07-30T05:34:48;101251.77;;;26.60;28.72
69239;BME280;56349;51.816;-0.026;2022-07-30T05:37:14;101244.92;;;26.59;28.73
69239;BME280;56349;51.816;-0.026;2022-07-30T05:39:39;101241.23;;;26.57;28.76
69239;BME280;56349;51.816;-0.026;2022-07-30T05:42:05;101243.40;;;26.56;28.78
69239;BME280;56349;51.816;-0.026;2022-07-30T05:44:31;101237.10;;;26.78;28.78
69239;BME280;56349;51.816;-0.026;2022-07-30T05:46:57;101234.85;;;27.03;28.79
69239;BME280;56349;51.816;-0.026;2022-07-30T05:49:22;101228.64;;;26.55;28.81
69239;BME280;56349;51.816;-0.026;2022-07-30T05:51:48;101224.83;;;26.54;28.82
69239;BME280;56349;51.816;-0.026;2022-07-30T05:54:14;101220.70;;;26.53;28.83
69239;BME280;56349;51.816;-0.026;2022-07-30T05:56:40;101220.17;;;26.74;28.85
69239;BME280;56349;51.816;-0.026;2022-07-30T05:59:06;101220.39;;;26.73;28.87
69239;BME280;56349;51.816;-0.026;2022-07-30T06:01:31;101220.32;;;26.73;28.89
69239;BME280;56349;51.816;-0.026;2022-07-30T06:03:57;101220.27;;;26.71;28.90
69239;BME280;56349;51.816;-0.026;2022-07-30T06:06:23;101218.43;;;26.71;28.92
69239;BME280;56349;51.816;-0.026;2022-07-30T06:08:49;101217.58;;;26.70;28.94
69239;BME280;56349;51.816;-0.026;2022-07-30T06:11:15;101214.10;;;26.46;28.96
69239;BME280;56349;51.816;-0.026;2022-07-30T06:13:40;101216.16;;;26.69;29.01
69239;BME280;56349;51.816;-0.026;2022-07-30T06:16:06;101217.60;;;26.48;29.17
69239;BME280;56349;51.816;-0.026;2022-07-30T06:18:32;101212.22;;;26.50;29.36
69239;BME280;56349;51.816;-0.026;2022-07-30T06:20:58;101213.05;;;26.54;29.77
69239;BME280;56349;51.816;-0.026;2022-07-30T06:23:24;101211.75;;;26.82;30.17
69239;BME280;56349;51.816;-0.026;2022-07-30T06:25:50;101212.07;;;26.70;30.34
69239;BME280;56349;51.816;-0.026;2022-07-30T06:28:16;101210.12;;;26.83;30.44
69239;BME280;56349;51.816;-0.026;2022-07-30T06:30:40;101215.90;;;27.00;30.37
69239;BME280;56349;51.816;-0.026;2022-07-30T06:33:06;101220.83;;;26.70;30.31
69239;BME280;56349;51.816;-0.026;2022-07-30T06:35:32;101224.60;;;27.43;30.30
69239;BME280;56349;51.816;-0.026;2022-07-30T06:37:58;101223.54;;;26.97;30.13
69239;BME280;56349;51.816;-0.026;2022-07-30T06:40:24;101222.36;;;27.45;29.97
69239;BME280;56349;51.816;-0.026;2022-07-30T06:42:49;101223.30;;;27.68;29.77
69239;BME280;56349;51.816;-0.026;2022-07-30T06:45:15;101220.64;;;27.71;29.55
69239;BME280;56349;51.816;-0.026;2022-07-30T06:47:41;101222.24;;;27.97;29.32
69239;BME280;56349;51.816;-0.026;2022-07-30T06:50:08;101232.45;;;28.22;29.06
69239;BME280;56349;51.816;-0.026;2022-07-30T06:52:33;101227.50;;;27.96;28.80
69239;BME280;56349;51.816;-0.026;2022-07-30T06:54:58;101222.34;;;28.41;28.49
69239;BME280;56349;51.816;-0.026;2022-07-30T06:57:24;101228.02;;;28.63;28.26
69239;BME280;56349;51.816;-0.026;2022-07-30T06:59:50;101226.42;;;28.59;27.98
69239;BME280;56349;51.816;-0.026;2022-07-30T07:02:15;101219.46;;;28.99;27.76
69239;BME280;56349;51.816;-0.026;2022-07-30T07:04:41;101210.64;;;28.72;27.55
69239;BME280;56349;51.816;-0.026;2022-07-30T07:07:07;101212.18;;;28.88;27.36
69239;BME280;56349;51.816;-0.026;2022-07-30T07:09:32;101222.60;;;29.04;27.17
69239;BME280;56349;51.816;-0.026;2022-07-30T07:11:58;101222.88;;;29.18;27.01
69239;BME280;56349;51.816;-0.026;2022-07-30T07:14:24;101221.00;;;29.05;26.87
69239;BME280;56349;51.816;-0.026;2022-07-30T07:16:49;101220.04;;;29.43;26.73
69239;BME280;56349;51.816;-0.026;2022-07-30T07:19:15;101215.64;;;29.55;26.58
69239;BME280;56349;51.816;-0.026;2022-07-30T07:21:41;101220.72;;;29.66;26.45
69239;BME280;56349;51.816;-0.026;2022-07-30T07:24:07;101220.85;;;29.78;26.38
69239;BME280;56349;51.816;-0.026;2022-07-30T07:26:33;101221.50;;;29.63;26.23
69239;BME280;56349;51.816;-0.026;2022-07-30T07:28:59;101221.64;;;29.73;26.12
69239;BME280;56349;51.816;-0.026;2022-07-30T07:31:24;101220.92;;;29.82;25.98
69239;BME280;56349;51.816;-0.026;2022-07-30T07:33:50;101221.18;;;29.68;25.88
69239;BME280;56349;51.816;-0.026;2022-07-30T07:36:15;101216.21;;;29.76;25.78
69239;BME280;56349;51.816;-0.026;2022-07-30T07:38:41;101218.15;;;30.05;25.70
69239;BME280;56349;51.816;-0.026;2022-07-30T07:41:07;101222.11;;;30.04;25.70
69239;BME280;56349;51.816;-0.026;2022-07-30T07:43:32;101224.97;;;29.71;25.65
69239;BME280;56349;51.816;-0.026;2022-07-30T07:45:58;101226.33;;;29.65;25.60
69239;BME280;56349;51.816;-0.026;2022-07-30T07:48:24;101233.85;;;29.60;25.74
69239;BME280;56349;51.816;-0.026;2022-07-30T07:50:50;101235.76;;;29.59;25.88
69239;BME280;56349;51.816;-0.026;2022-07-30T07:53:15;101231.72;;;29.58;25.71
69239;BME280;56349;51.816;-0.026;2022-07-30T07:55:41;101230.38;;;29.78;25.55
69239;BME280;56349;51.816;-0.026;2022-07-30T07:58:07;101224.20;;;29.52;25.47
69239;BME280;56349;51.816;-0.026;2022-07-30T08:00:33;101223.65;;;29.99;25.48
69239;BME280;56349;51.816;-0.026;2022-07-30T08:02:58;101223.11;;;29.49;25.45
69239;BME280;56349;51.816;-0.026;2022-07-30T08:05:24;101219.67;;;29.49;25.42
69239;BME280;56349;51.816;-0.026;2022-07-30T08:07:50;101218.23;;;29.42;25.19
69239;BME280;56349;51.816;-0.026;2022-07-30T08:10:15;101214.55;;;29.34;25.02
69239;BME280;56349;51.816;-0.026;2022-07-30T08:12:41;101218.08;;;29.50;25.11
69239;BME280;56349;51.816;-0.026;2022-07-30T08:15:09;101224.53;;;29.42;25.24
69239;BME280;56349;51.816;-0.026;2022-07-30T08:17:33;101227.47;;;29.40;25.23
69239;BME280;56349;51.816;-0.026;2022-07-30T08:19:59;101226.14;;;29.19;25.17
69239;BME280;56349;51.816;-0.026;2022-07-30T08:22:24;101235.69;;;29.50;25.18
69239;BME280;56349;51.816;-0.026;2022-07-30T08:24:50;101234.34;;;29.36;25.09
69239;BME280;56349;51.816;-0.026;2022-07-30T08:27:17;101231.84;;;29.60;24.99
69239;BME280;56349;51.816;-0.026;2022-07-30T08:29:41;101233.41;;;29.57;24.96
69239;BME280;56349;51.816;-0.026;2022-07-30T08:32:07;101231.99;;;29.79;24.96
69239;BME280;56349;51.816;-0.026;2022-07-30T08:34:33;101229.40;;;29.41;24.99
69239;BME280;56349;51.816;-0.026;2022-07-30T08:36:58;101228.14;;;29.55;25.08
69239;BME280;56349;51.816;-0.026;2022-07-30T08:39:24;101227.55;;;29.41;25.16
69239;BME280;56349;51.816;-0.026;2022-07-30T08:41:50;101223.40;;;29.26;25.24
69239;BME280;56349;51.816;-0.026;2022-07-30T08:44:17;101227.29;;;29.11;25.35
69239;BME280;56349;51.816;-0.026;2022-07-30T08:46:42;101228.59;;;28.95;25.46
69239;BME280;56349;51.816;-0.026;2022-07-30T08:49:07;101228.04;;;29.22;25.58
69239;BME280;56349;51.816;-0.026;2022-07-30T08:51:34;101228.85;;;28.83;25.69
69239;BME280;56349;51.816;-0.026;2022-07-30T08:53:59;101233.54;;;28.90;25.78
69239;BME280;56349;51.816;-0.026;2022-07-30T08:56:24;101233.65;;;28.75;25.91
69239;BME280;56349;51.816;-0.026;2022-07-30T08:58:50;101231.48;;;28.61;26.02
69239;BME280;56349;51.816;-0.026;2022-07-30T09:01:16;101231.09;;;28.47;26.12
69239;BME280;56349;51.816;-0.026;2022-07-30T09:03:42;101231.62;;;28.33;26.26
69239;BME280;56349;51.816;-0.026;2022-07-30T09:06:07;101233.55;;;28.21;26.38
69239;BME280;56349;51.816;-0.026;2022-07-30T09:08:33;101232.64;;;28.35;26.47
69239;BME280;56349;51.816;-0.026;2022-07-30T09:10:59;101232.32;;;28.48;26.48
69239;BME280;56349;51.816;-0.026;2022-07-30T09:13:26;101233.45;;;28.18;26.62
69239;BME280;56349;51.816;-0.026;2022-07-30T09:15:50;101229.45;;;28.09;26.78
69239;BME280;56349;51.816;-0.026;2022-07-30T09:20:40;101231.34;;;28.17;27.17
69239;BME280;56349;51.816;-0.026;2022-07-30T09:23:06;101236.46;;;28.13;27.28
69239;BME280;56349;51.816;-0.026;2022-07-30T09:25:34;101241.44;;;27.85;27.39
69239;BME280;56349;51.816;-0.026;2022-07-30T09:27:58;101243.49;;;28.02;27.48
69239;BME280;56349;51.816;-0.026;2022-07-30T09:30:23;101248.44;;;27.96;27.56
69239;BME280;56349;51.816;-0.026;2022-07-30T09:32:51;101244.33;;;27.91;27.49
69239;BME280;56349;51.816;-0.026;2022-07-30T09:35:15;101236.51;;;27.82;27.31
69239;BME280;56349;51.816;-0.026;2022-07-30T09:37:41;101236.12;;;27.78;27.34
69239;BME280;56349;51.816;-0.026;2022-07-30T09:40:12;101229.92;;;27.72;27.42
69239;BME280;56349;51.816;-0.026;2022-07-30T09:42:32;101226.24;;;27.70;27.49
69239;BME280;56349;51.816;-0.026;2022-07-30T09:45:04;101226.02;;;27.66;27.47
69239;BME280;56349;51.816;-0.026;2022-07-30T09:47:29;101225.78;;;27.60;27.52
69239;BME280;56349;51.816;-0.026;2022-07-30T09:49:57;101226.67;;;27.57;27.63
69239;BME280;56349;51.816;-0.026;2022-07-30T09:52:26;101225.28;;;27.33;27.70
69239;BME280;56349;51.816;-0.026;2022-07-30T09:54:45;101226.02;;;27.54;27.75
69239;BME280;56349;51.816;-0.026;2022-07-30T09:57:06;101224.32;;;27.53;27.77
69239;BME280;56349;51.816;-0.026;2022-07-30T09:59:32;101223.74;;;27.52;27.82
69239;BME280;56349;51.816;-0.026;2022-07-30T10:01:58;101221.01;;;27.75;27.96
69239;BME280;56349;51.816;-0.026;2022-07-30T10:04:23;101221.22;;;27.50;28.04
69239;BME280;56349;51.816;-0.026;2022-07-30T10:06:48;101220.74;;;27.49;28.11
69239;BME280;56349;51.816;-0.026;2022-07-30T10:11:39;101212.83;;;27.50;28.19
69239;BME280;56349;51.816;-0.026;2022-07-30T10:14:05;101215.24;;;27.50;28.17
69239;BME280;56349;51.816;-0.026;2022-07-30T10:16:31;101217.42;;;27.98;28.16
69239;BME280;56349;51.816;-0.026;2022-07-30T10:18:58;101216.46;;;27.50;28.14
69239;BME280;56349;51.816;-0.026;2022-07-30T10:21:23;101213.69;;;27.50;28.01
69239;BME280;56349;51.816;-0.026;2022-07-30T10:23:48;101211.74;;;27.52;27.98
69239;BME280;56349;51.816;-0.026;2022-07-30T10:26:14;101217.76;;;27.52;28.07
69239;BME280;56349;51.816;-0.026;2022-07-30T10:28:40;101218.53;;;27.52;28.14
69239;BME280;56349;51.816;-0.026;2022-07-30T10:31:05;101222.64;;;27.53;28.11
69239;BME280;56349;51.816;-0.026;2022-07-30T10:33:31;101225.32;;;27.54;27.96
69239;BME280;56349;51.816;-0.026;2022-07-30T10:35:57;101226.22;;;27.50;28.06
69239;BME280;56349;51.816;-0.026;2022-07-30T10:38:29;101227.51;;;27.48;28.14
69239;BME280;56349;51.816;-0.026;2022-07-30T10:40:52;101223.17;;;27.96;28.11
69239;BME280;56349;51.816;-0.026;2022-07-30T10:45:46;101224.18;;;27.75;28.08
69239;BME280;56349;51.816;-0.026;2022-07-30T10:48:06;101221.78;;;27.52;27.98
69239;BME280;56349;51.816;-0.026;2022-07-30T10:50:31;101222.76;;;27.55;28.00
69239;BME280;56349;51.816;-0.026;2022-07-30T10:52:59;101218.46;;;27.56;28.05
69239;BME280;56349;51.816;-0.026;2022-07-30T10:55:24;101221.30;;;27.86;28.11
69239;BME280;56349;51.816;-0.026;2022-07-30T10:57:56;101223.78;;;27.61;28.01
69239;BME280;56349;51.816;-0.026;2022-07-30T11:00:14;101226.83;;;27.39;28.06
69239;BME280;56349;51.816;-0.026;2022-07-30T11:02:39;101229.55;;;27.64;27.99
69239;BME280;56349;51.816;-0.026;2022-07-30T11:07:30;101225.76;;;27.65;27.87
69239;BME280;56349;51.816;-0.026;2022-07-30T11:09:57;101229.00;;;27.93;27.85
69239;BME280;56349;51.816;-0.026;2022-07-30T11:14:54;101223.13;;;27.67;27.88
69239;BME280;56349;51.816;-0.026;2022-07-30T11:17:13;101221.33;;;27.67;27.82
69239;BME280;56349;51.816;-0.026;2022-07-30T11:26:53;101226.34;;;27.66;27.57
69239;BME280;56349;51.816;-0.026;2022-07-30T11:31:44;101234.71;;;27.92;27.47
69239;BME280;56349;51.816;-0.026;2022-07-30T11:36:36;101230.21;;;27.70;27.86
69239;BME280;56349;51.816;-0.026;2022-07-30T11:39:01;101226.62;;;27.74;27.88
69239;BME280;56349;51.816;-0.026;2022-07-30T11:41:27;101224.63;;;27.79;27.93
69239;BME280;56349;51.816;-0.026;2022-07-30T11:46:19;101228.47;;;27.91;28.04
69239;BME280;56349;51.816;-0.026;2022-07-30T11:48:53;101218.74;;;28.00;28.07
69239;BME280;56349;51.816;-0.026;2022-07-30T11:51:10;101214.10;;;27.95;28.05
69239;BME280;56349;51.816;-0.026;2022-07-30T11:53:36;101217.56;;;28.14;27.96
69239;BME280;56349;51.816;-0.026;2022-07-30T11:56:03;101214.51;;;28.34;27.83
69239;BME280;56349;51.816;-0.026;2022-07-30T11:58:29;101211.74;;;28.31;27.68
69239;BME280;56349;51.816;-0.026;2022-07-30T12:00:55;101216.24;;;28.50;27.51
69239;BME280;56349;51.816;-0.026;2022-07-30T12:03:21;101211.82;;;28.50;27.34
69239;BME280;56349;51.816;-0.026;2022-07-30T12:05:46;101210.01;;;28.50;27.17
69239;BME280;56349;51.816;-0.026;2022-07-30T12:08:11;101208.10;;;29.16;27.00
69239;BME280;56349;51.816;-0.026;2022-07-30T12:10:37;101215.34;;;29.17;26.85
69239;BME280;56349;51.816;-0.026;2022-07-30T12:13:07;101207.52;;;29.15;26.62
69239;BME280;56349;51.816;-0.026;2022-07-30T12:15:29;101209.27;;;29.36;26.45
69239;BME280;56349;51.816;-0.026;2022-07-30T12:17:53;101202.79;;;29.31;26.27
69239;BME280;56349;51.816;-0.026;2022-07-30T12:20:19;101204.93;;;29.79;26.10
69239;BME280;56349;51.816;-0.026;2022-07-30T12:22:45;101205.83;;;29.69;25.98
69239;BME280;56349;51.816;-0.026;2022-07-30T12:25:11;101198.13;;;29.59;25.91
69239;BME280;56349;51.816;-0.026;2022-07-30T12:27:35;101200.12;;;29.79;25.83
69239;BME280;56349;51.816;-0.026;2022-07-30T12:30:01;101196.44;;;30.01;25.68
69239;BME280;56349;51.816;-0.026;2022-07-30T12:32:27;101195.89;;;30.20;25.49
69239;BME280;56349;51.816;-0.026;2022-07-30T12:34:53;101192.82;;;30.34;25.31
69239;BME280;56349;51.816;-0.026;2022-07-30T12:37:18;101197.24;;;29.89;25.24
69239;BME280;56349;51.816;-0.026;2022-07-30T12:39:44;101195.96;;;30.57;25.17
69239;BME280;56349;51.816;-0.026;2022-07-30T12:42:17;101185.59;;;30.36;25.12
69239;BME280;56349;51.816;-0.026;2022-07-30T12:44:38;101183.16;;;30.30;25.07
69239;BME280;56349;51.816;-0.026;2022-07-30T12:47:02;101187.34;;;30.18;25.10
69239;BME280;56349;51.816;-0.026;2022-07-30T12:49:28;101187.30;;;30.28;25.17
69239;BME280;56349;51.816;-0.026;2022-07-30T12:51:53;101187.47;;;29.96;25.29
69239;BME280;56349;51.816;-0.026;2022-07-30T12:54:19;101185.53;;;30.07;25.43
69239;BME280;56349;51.816;-0.026;2022-07-30T12:56:54;101182.97;;;29.91;25.55
69239;BME280;56349;51.816;-0.026;2022-07-30T12:59:19;101178.90;;;30.03;25.72